Time;durP1;ratioP1;P1;durP2;ratioP2;P2;SDS_P1;SDS_P2;PMS_P1;PMS_P2;Temp;Humidity;BMP_temperature;BMP_pressure;BME280_temperature;BME280_humidity;BME280_pressure;Samples;Min_cycle;Max_cycle;Signal;HPM_P1;HPM_P2
2023/01/09 00:01:42;;;;;;;6.40;1.80;;;;;;;;;;5041821;28;20045;-77
2023/01/09 00:04:09;;;;;;;6.93;2.38;;;;;;;;;;5072490;28;20555;-78
2023/01/09 00:06:35;;;;;;;7.70;2.58;;;;;;;;;;5072528;28;20144;-77
2023/01/09 00:09:01;;;;;;;6.72;2.10;;;;;;;;;;5072381;28;20087;-77
2023/01/09 00:11:27;;;;;;;5.35;2.20;;;;;;;;;;5072085;28;20044;-77
2023/01/09 00:13:53;;;;;;;4.63;2.10;;;;;;;;;;5072068;28;20040;-77
2023/01/09 00:16:20;;;;;;;6.10;2.28;;;;;;;;;;5055531;28;20041;-77
2023/01/09 00:18:46;;;;;;;5.30;2.10;;;;;;;;;;5072193;28;20100;-77
2023/01/09 00:21:13;;;;;;;7.40;2.13;;;;;;;;;;5071761;28;20501;-77
2023/01/09 00:23:39;;;;;;;3.90;2.10;;;;;;;;;;5072382;28;20485;-77
2023/01/09 00:26:06;;;;;;;4.57;2.20;;;;;;;;;;5073125;28;20055;-77
2023/01/09 00:28:33;;;;;;;6.63;2.10;;;;;;;;;;5071994;28;20044;-77
2023/01/09 00:31:00;;;;;;;5.68;2.05;;;;;;;;;;5072668;28;20040;-77
2023/01/09 00:33:28;;;;;;;8.63;2.60;;;;;;;;;;5071538;28;20047;-77
2023/01/09 00:35:54;;;;;;;3.78;2.17;;;;;;;;;;5072166;28;20051;-78
2023/01/09 00:38:20;;;;;;;6.25;2.38;;;;;;;;;;5072636;28;20043;-77
2023/01/09 00:40:46;;;;;;;6.47;2.20;;;;;;;;;;5071444;28;20072;-77
2023/01/09 00:43:12;;;;;;;7.25;2.20;;;;;;;;;;5054890;28;20045;-77
2023/01/09 00:45:38;;;;;;;5.80;2.30;;;;;;;;;;5054822;28;20044;-78
2023/01/09 00:48:08;;;;;;;8.25;2.35;;;;;;;;;;5071209;28;20044;-77
2023/01/09 00:50:35;;;;;;;4.90;2.20;;;;;;;;;;5071694;28;20397;-77
2023/01/09 00:53:05;;;;;;;4.80;2.20;;;;;;;;;;5071230;28;20044;-77
2023/01/09 00:55:32;;;;;;;6.72;2.38;;;;;;;;;;5071457;28;20048;-78
2023/01/09 00:57:58;;;;;;;5.63;2.35;;;;;;;;;;5071253;28;20461;-77
2023/01/09 01:00:24;;;;;;;7.35;2.45;;;;;;;;;;5067349;28;20041;-77
2023/01/09 01:02:50;;;;;;;7.63;2.38;;;;;;;;;;5072657;28;20041;-77
2023/01/09 01:08:01;;;;;;;4.35;2.00;;;;;;;;;;5070848;28;20075;-77
2023/01/09 01:10:27;;;;;;;5.22;2.10;;;;;;;;;;5072187;28;20147;-77
2023/01/09 01:12:53;;;;;;;6.70;2.40;;;;;;;;;;5058535;28;20033;-77
2023/01/09 01:15:20;;;;;;;8.52;2.40;;;;;;;;;;5071351;28;20473;-77
2023/01/09 01:17:46;;;;;;;6.40;2.20;;;;;;;;;;5045300;28;20052;-77
2023/01/09 01:20:14;;;;;;;4.88;2.40;;;;;;;;;;5059938;28;20120;-77
2023/01/09 01:22:43;;;;;;;7.07;2.70;;;;;;;;;;5051238;28;20033;-78
2023/01/09 01:25:10;;;;;;;7.03;2.42;;;;;;;;;;5051011;28;20390;-77
2023/01/09 01:27:37;;;;;;;5.07;2.58;;;;;;;;;;5034299;28;20383;-77
2023/01/09 01:30:03;;;;;;;4.63;2.53;;;;;;;;;;5050753;28;20075;-77
2023/01/09 01:32:29;;;;;;;7.05;2.30;;;;;;;;;;5051209;28;20439;-77
2023/01/09 01:34:55;;;;;;;4.90;2.17;;;;;;;;;;5034700;28;20453;-77
2023/01/09 01:37:22;;;;;;;5.55;2.20;;;;;;;;;;5050905;28;20084;-77
2023/01/09 01:39:48;;;;;;;5.88;2.30;;;;;;;;;;5051372;28;20120;-77
2023/01/09 01:42:14;;;;;;;6.22;2.50;;;;;;;;;;5050294;28;20060;-77
2023/01/09 01:44:59;;;;;;;4.63;2.15;;;;;;;;;;5052319;28;20037;-77
2023/01/09 01:47:34;;;;;;;4.90;2.17;;;;;;;;;;5051999;28;20055;-77
2023/01/09 01:50:03;;;;;;;5.80;2.30;;;;;;;;;;5051316;28;20393;-77
2023/01/09 01:52:30;;;;;;;7.35;2.47;;;;;;;;;;5050841;28;20389;-77
2023/01/09 01:54:56;;;;;;;6.40;2.35;;;;;;;;;;5050960;28;20052;-77
2023/01/09 01:57:22;;;;;;;10.23;2.50;;;;;;;;;;5050833;28;20475;-77
2023/01/09 01:59:50;;;;;;;7.40;2.78;;;;;;;;;;5052046;28;20088;-77
2023/01/09 02:02:18;;;;;;;10.18;2.60;;;;;;;;;;5050456;28;20095;-77
2023/01/09 02:04:45;;;;;;;5.10;2.50;;;;;;;;;;5050955;28;20033;-78
2023/01/09 02:07:11;;;;;;;6.35;2.42;;;;;;;;;;5050812;28;20033;-77
2023/01/09 02:09:38;;;;;;;7.68;2.70;;;;;;;;;;5051256;28;20498;-77
2023/01/09 02:12:22;;;;;;;9.05;2.58;;;;;;;;;;5050429;28;20045;-77
2023/01/09 02:14:50;;;;;;;9.80;2.63;;;;;;;;;;5034042;28;20052;-77
2023/01/09 02:17:24;;;;;;;6.45;2.58;;;;;;;;;;5050514;28;20375;-76
2023/01/09 02:20:23;;;;;;;5.72;2.55;;;;;;;;;;5050816;28;20048;-77
2023/01/09 02:22:49;;;;;;;6.18;2.50;;;;;;;;;;5037955;28;20389;-77
2023/01/09 02:25:30;;;;;;;7.88;2.38;;;;;;;;;;5055951;28;20040;-77
2023/01/09 02:27:59;;;;;;;6.72;2.15;;;;;;;;;;5053075;28;20037;-77
2023/01/09 02:30:30;;;;;;;6.68;2.28;;;;;;;;;;5053984;28;20494;-77
2023/01/09 02:32:58;;;;;;;7.20;2.35;;;;;;;;;;5055341;28;20040;-77
2023/01/09 02:35:33;;;;;;;6.90;2.33;;;;;;;;;;5053787;28;20053;-77
2023/01/09 02:37:59;;;;;;;3.87;2.27;;;;;;;;;;5054195;28;20482;-77
2023/01/09 02:40:34;;;;;;;9.95;2.40;;;;;;;;;;5053882;28;20032;-78
2023/01/09 02:43:01;;;;;;;7.17;2.30;;;;;;;;;;5037606;28;20494;-77
2023/01/09 02:45:27;;;;;;;10.75;3.05;;;;;;;;;;5054764;28;20651;-78
2023/01/09 02:47:54;;;;;;;6.75;2.60;;;;;;;;;;5054046;28;20486;-77
2023/01/09 02:50:22;;;;;;;5.88;2.60;;;;;;;;;;5053964;28;20481;-77
2023/01/09 02:53:06;;;;;;;9.93;2.50;;;;;;;;;;5053740;28;20051;-77
2023/01/09 02:55:47;;;;;;;8.10;2.80;;;;;;;;;;5042006;28;20049;-77
2023/01/09 02:58:20;;;;;;;7.13;2.35;;;;;;;;;;5052979;28;20191;-77
2023/01/09 03:01:00;;;;;;;6.25;2.65;;;;;;;;;;5053693;28;20052;-77
2023/01/09 03:03:31;;;;;;;8.00;3.58;;;;;;;;;;5052875;28;20029;-77
2023/01/09 03:06:12;;;;;;;8.00;3.50;;;;;;;;;;5037074;28;20068;-77
2023/01/09 03:08:44;;;;;;;7.38;2.90;;;;;;;;;;5053601;28;20041;-77
2023/01/09 03:11:10;;;;;;;11.88;3.53;;;;;;;;;;5053752;28;20511;-77
2023/01/09 03:13:46;;;;;;;7.68;3.13;;;;;;;;;;5050347;28;20336;-77
2023/01/09 03:16:15;;;;;;;8.52;3.38;;;;;;;;;;5044186;28;20051;-77
2023/01/09 03:18:42;;;;;;;10.02;3.30;;;;;;;;;;5036896;28;20045;-77
2023/01/09 03:21:08;;;;;;;11.88;3.45;;;;;;;;;;5036857;28;20041;-77
2023/01/09 03:23:47;;;;;;;8.38;3.58;;;;;;;;;;5054336;28;20112;-77
2023/01/09 03:26:13;;;;;;;10.27;3.67;;;;;;;;;;5053143;28;20037;-77
2023/01/09 03:28:39;;;;;;;10.20;4.13;;;;;;;;;;5052803;28;20049;-77
2023/01/09 03:31:05;;;;;;;10.95;4.05;;;;;;;;;;5036700;28;20037;-77
2023/01/09 03:33:31;;;;;;;10.65;3.60;;;;;;;;;;5036006;28;20048;-77
2023/01/09 03:35:57;;;;;;;12.40;3.90;;;;;;;;;;5052861;28;20095;-78
2023/01/09 03:38:24;;;;;;;9.35;3.88;;;;;;;;;;5046876;28;20088;-77
2023/01/09 03:40:50;;;;;;;10.68;4.30;;;;;;;;;;5046370;28;20083;-77
2023/01/09 03:43:16;;;;;;;8.93;4.15;;;;;;;;;;5052885;28;20040;-77
2023/01/09 03:45:42;;;;;;;12.18;4.18;;;;;;;;;;5052701;28;20069;-77
2023/01/09 03:48:08;;;;;;;10.10;4.32;;;;;;;;;;5049114;28;20144;-77
2023/01/09 03:50:34;;;;;;;13.05;4.43;;;;;;;;;;5043144;28;20049;-77
2023/01/09 03:53:00;;;;;;;13.13;5.03;;;;;;;;;;5052645;28;20509;-77
2023/01/09 03:55:27;;;;;;;12.60;4.93;;;;;;;;;;5035704;28;20048;-77
2023/01/09 03:57:53;;;;;;;12.07;5.30;;;;;;;;;;5052326;28;20056;-77
2023/01/09 04:00:19;;;;;;;14.80;6.43;;;;;;;;;;5052188;28;20048;-77
2023/01/09 04:02:46;;;;;;;11.40;5.95;;;;;;;;;;5086086;28;20425;-77
2023/01/09 04:05:12;;;;;;;16.17;6.80;;;;;;;;;;5053741;28;20386;-77
2023/01/09 04:07:38;;;;;;;16.05;6.90;;;;;;;;;;5052132;28;20040;-77
2023/01/09 04:10:04;;;;;;;18.40;7.43;;;;;;;;;;5052205;28;20432;-77
2023/01/09 04:12:30;;;;;;;16.40;7.95;;;;;;;;;;5052089;28;20648;-77
2023/01/09 04:14:56;;;;;;;17.40;8.40;;;;;;;;;;5052229;28;20114;-77
2023/01/09 04:17:22;;;;;;;21.00;8.75;;;;;;;;;;5037702;28;20040;-77
2023/01/09 04:19:49;;;;;;;19.67;9.00;;;;;;;;;;5052128;28;20128;-77
2023/01/09 04:22:15;;;;;;;21.50;9.65;;;;;;;;;;5022123;28;20432;-77
2023/01/09 04:24:41;;;;;;;18.00;8.68;;;;;;;;;;5051825;28;20249;-77
2023/01/09 04:27:07;;;;;;;22.98;10.75;;;;;;;;;;5064634;28;20079;-77
2023/01/09 04:29:33;;;;;;;20.38;10.52;;;;;;;;;;5036795;28;20178;-77
2023/01/09 04:31:59;;;;;;;22.35;10.63;;;;;;;;;;5052337;28;20041;-77
2023/01/09 04:34:26;;;;;;;22.23;11.65;;;;;;;;;;5052741;28;20029;-77
2023/01/09 04:36:53;;;;;;;26.33;12.43;;;;;;;;;;5052049;28;20056;-77
2023/01/09 04:39:19;;;;;;;27.80;12.30;;;;;;;;;;5051990;28;20049;-77
2023/01/09 04:41:49;;;;;;;26.27;12.63;;;;;;;;;;5051814;28;20049;-77
2023/01/09 04:44:16;;;;;;;25.40;13.55;;;;;;;;;;5051417;28;20033;-77
2023/01/09 04:46:42;;;;;;;24.25;13.10;;;;;;;;;;5051243;28;20049;-77
2023/01/09 04:49:08;;;;;;;25.80;13.50;;;;;;;;;;5051712;28;20119;-77
2023/01/09 04:51:34;;;;;;;26.55;14.57;;;;;;;;;;5047851;28;20037;-77
2023/01/09 04:54:00;;;;;;;27.02;14.35;;;;;;;;;;5024906;28;20107;-77
2023/01/09 04:56:26;;;;;;;28.02;12.90;;;;;;;;;;5051400;28;20494;-77
2023/01/09 04:58:52;;;;;;;30.10;14.20;;;;;;;;;;5034870;28;20053;-76
2023/01/09 05:01:18;;;;;;;26.25;14.10;;;;;;;;;;5051124;28;20109;-77
2023/01/09 05:03:44;;;;;;;32.22;14.88;;;;;;;;;;5051191;28;20053;-76
2023/01/09 05:06:11;;;;;;;27.17;14.60;;;;;;;;;;5051833;28;20044;-77
2023/01/09 05:08:37;;;;;;;28.95;14.90;;;;;;;;;;5034854;28;20052;-77
2023/01/09 05:11:03;;;;;;;29.15;13.82;;;;;;;;;;5052207;28;20490;-77
2023/01/09 05:13:29;;;;;;;28.42;15.20;;;;;;;;;;5034801;28;20103;-77
2023/01/09 05:15:55;;;;;;;28.67;15.10;;;;;;;;;;5043213;28;20050;-78
2023/01/09 05:18:21;;;;;;;26.83;14.50;;;;;;;;;;5045435;28;20052;-78
2023/01/09 05:20:47;;;;;;;30.13;14.60;;;;;;;;;;5051405;28;20045;-77
2023/01/09 05:23:13;;;;;;;32.15;15.38;;;;;;;;;;5034758;28;20037;-77
2023/01/09 05:25:39;;;;;;;29.42;15.52;;;;;;;;;;5050804;28;20068;-78
2023/01/09 05:28:05;;;;;;;29.30;14.32;;;;;;;;;;5051322;28;20048;-77
2023/01/09 05:30:31;;;;;;;28.88;14.35;;;;;;;;;;5084311;28;20048;-77
2023/01/09 05:32:57;;;;;;;25.40;14.10;;;;;;;;;;5051630;28;20037;-77
2023/01/09 05:35:23;;;;;;;26.85;14.25;;;;;;;;;;5051291;28;20498;-77
2023/01/09 05:37:49;;;;;;;27.48;13.35;;;;;;;;;;5050820;28;20387;-77
2023/01/09 05:40:15;;;;;;;28.48;13.80;;;;;;;;;;5035042;28;20433;-77
2023/01/09 05:42:44;;;;;;;24.63;11.82;;;;;;;;;;5050775;28;20040;-78
2023/01/09 05:45:11;;;;;;;25.77;12.32;;;;;;;;;;5052333;28;20037;-77
2023/01/09 05:47:37;;;;;;;24.33;12.00;;;;;;;;;;5050854;28;20157;-77
2023/01/09 05:50:04;;;;;;;25.17;11.65;;;;;;;;;;5050633;28;20124;-77
2023/01/09 05:52:30;;;;;;;21.77;11.25;;;;;;;;;;5050753;28;20048;-77
2023/01/09 05:54:56;;;;;;;22.50;11.18;;;;;;;;;;5050107;28;20040;-77
2023/01/09 05:57:22;;;;;;;21.70;10.48;;;;;;;;;;5054507;28;20040;-77
2023/01/09 05:59:48;;;;;;;20.88;9.80;;;;;;;;;;5037845;28;20533;-78
2023/01/09 06:02:14;;;;;;;21.75;10.40;;;;;;;;;;5054832;28;20095;-77
2023/01/09 06:04:42;;;;;;;21.55;9.82;;;;;;;;;;5024407;28;20034;-77
2023/01/09 06:07:08;;;;;;;24.75;10.32;;;;;;;;;;5054659;28;20048;-77
2023/01/09 06:09:34;;;;;;;20.45;10.13;;;;;;;;;;5054431;28;20033;-77
2023/01/09 06:12:00;;;;;;;22.73;10.93;;;;;;;;;;5054572;28;20120;-77
2023/01/09 06:14:26;;;;;;;19.10;9.27;;;;;;;;;;5054484;28;20045;-77
2023/01/09 06:16:52;;;;;;;19.45;10.27;;;;;;;;;;5052120;28;20116;-77
2023/01/09 06:19:18;;;;;;;19.17;10.70;;;;;;;;;;5042470;28;20040;-77
2023/01/09 06:21:44;;;;;;;16.52;9.88;;;;;;;;;;5037935;28;20036;-77
2023/01/09 06:24:11;;;;;;;24.17;10.02;;;;;;;;;;5037799;28;20036;-77
2023/01/09 06:26:37;;;;;;;18.90;10.30;;;;;;;;;;5087464;28;20123;-77
2023/01/09 06:29:03;;;;;;;21.23;9.73;;;;;;;;;;5054203;28;20045;-77
2023/01/09 06:31:29;;;;;;;21.08;8.82;;;;;;;;;;5054246;28;20041;-77
2023/01/09 06:33:55;;;;;;;16.27;9.55;;;;;;;;;;5054293;28;20045;-77
2023/01/09 06:36:21;;;;;;;17.33;8.70;;;;;;;;;;5054023;28;20048;-78
2023/01/09 06:38:47;;;;;;;18.23;9.05;;;;;;;;;;5037462;28;20080;-77
2023/01/09 06:41:13;;;;;;;20.73;8.77;;;;;;;;;;5054096;28;20037;-78
2023/01/09 06:43:39;;;;;;;19.67;9.43;;;;;;;;;;5053858;28;20083;-77
2023/01/09 06:46:06;;;;;;;24.10;9.23;;;;;;;;;;5037593;28;20451;-77
2023/01/09 06:48:32;;;;;;;18.08;9.50;;;;;;;;;;5054183;28;20037;-78
2023/01/09 06:50:58;;;;;;;18.13;8.52;;;;;;;;;;5053614;28;20056;-77
2023/01/09 06:53:24;;;;;;;21.02;9.27;;;;;;;;;;5037490;28;20041;-77
2023/01/09 06:55:51;;;;;;;19.73;8.77;;;;;;;;;;5054788;28;20068;-78
2023/01/09 06:58:17;;;;;;;17.17;8.52;;;;;;;;;;5053164;28;20513;-78
2023/01/09 07:00:43;;;;;;;17.48;7.93;;;;;;;;;;5053585;28;20056;-78
2023/01/09 07:03:10;;;;;;;19.95;9.60;;;;;;;;;;5036323;28;20033;-78
2023/01/09 07:05:41;;;;;;;18.52;9.15;;;;;;;;;;5052833;28;20041;-78
2023/01/09 07:08:07;;;;;;;20.73;9.18;;;;;;;;;;5052665;28;20049;-78
2023/01/09 07:10:33;;;;;;;23.15;9.35;;;;;;;;;;5052823;28;20040;-78
2023/01/09 07:12:59;;;;;;;20.10;8.43;;;;;;;;;;5052730;28;20045;-78
2023/01/09 07:15:25;;;;;;;17.77;8.45;;;;;;;;;;5052685;28;20371;-78
2023/01/09 07:17:51;;;;;;;17.13;8.02;;;;;;;;;;5052025;28;20067;-78
2023/01/09 07:20:17;;;;;;;18.23;8.23;;;;;;;;;;5035506;28;20052;-78
2023/01/09 07:22:44;;;;;;;18.70;7.97;;;;;;;;;;5035788;28;20037;-78
2023/01/09 07:25:10;;;;;;;17.98;7.90;;;;;;;;;;5052376;28;20041;-78
2023/01/09 07:27:36;;;;;;;18.48;8.13;;;;;;;;;;5052353;28;20060;-78
2023/01/09 07:30:03;;;;;;;17.40;7.75;;;;;;;;;;5051889;28;20049;-78
2023/01/09 07:32:29;;;;;;;14.30;7.20;;;;;;;;;;5038276;28;20120;-78
2023/01/09 07:34:55;;;;;;;14.02;7.50;;;;;;;;;;5051705;28;20051;-78
2023/01/09 07:37:21;;;;;;;14.45;7.50;;;;;;;;;;5052046;28;20048;-78
2023/01/09 07:39:48;;;;;;;16.02;7.40;;;;;;;;;;5051917;28;20033;-78
2023/01/09 07:42:14;;;;;;;17.73;8.00;;;;;;;;;;5035625;28;20044;-78
2023/01/09 07:44:40;;;;;;;13.15;7.30;;;;;;;;;;5051803;28;20041;-78
2023/01/09 07:47:06;;;;;;;15.52;7.53;;;;;;;;;;5051493;28;20091;-78
2023/01/09 07:49:32;;;;;;;17.23;7.35;;;;;;;;;;5035145;28;20041;-78
2023/01/09 07:51:58;;;;;;;17.75;8.00;;;;;;;;;;5051567;28;20167;-78
2023/01/09 07:54:24;;;;;;;19.90;7.97;;;;;;;;;;5051996;28;20509;-78
2023/01/09 07:56:50;;;;;;;16.20;8.10;;;;;;;;;;5051341;28;20126;-78
2023/01/09 07:59:16;;;;;;;16.58;8.02;;;;;;;;;;5013095;28;1121102;-78
2023/01/09 08:01:43;;;;;;;17.50;7.00;;;;;;;;;;5036057;28;20083;-78
2023/01/09 08:04:09;;;;;;;16.45;7.43;;;;;;;;;;5052455;28;20493;-78
2023/01/09 08:06:35;;;;;;;15.45;6.95;;;;;;;;;;5052229;28;20045;-78
2023/01/09 08:09:01;;;;;;;15.10;7.28;;;;;;;;;;5052200;28;20063;-78
2023/01/09 08:11:27;;;;;;;13.20;6.80;;;;;;;;;;5036426;28;20041;-78
2023/01/09 08:13:53;;;;;;;19.20;7.75;;;;;;;;;;5052104;28;20041;-78
2023/01/09 08:16:19;;;;;;;14.25;6.93;;;;;;;;;;5053784;28;20041;-78
2023/01/09 08:18:45;;;;;;;14.68;7.15;;;;;;;;;;5051356;28;20130;-78
2023/01/09 08:21:13;;;;;;;15.68;7.10;;;;;;;;;;5052060;28;20033;-78
2023/01/09 08:23:39;;;;;;;13.32;7.35;;;;;;;;;;5053747;28;20041;-78
2023/01/09 08:26:05;;;;;;;16.35;6.85;;;;;;;;;;5051866;28;20033;-78
2023/01/09 08:28:31;;;;;;;13.73;6.88;;;;;;;;;;5052439;28;20083;-78
2023/01/09 08:30:57;;;;;;;14.48;6.72;;;;;;;;;;5052293;28;20558;-79
2023/01/09 08:33:23;;;;;;;16.85;7.57;;;;;;;;;;5052334;28;20033;-78
2023/01/09 08:35:49;;;;;;;16.48;7.05;;;;;;;;;;5052420;28;20494;-78
2023/01/09 08:38:15;;;;;;;13.73;7.13;;;;;;;;;;5051771;28;20513;-78
2023/01/09 08:40:42;;;;;;;16.63;6.50;;;;;;;;;;5051900;28;20047;-78
2023/01/09 08:48:37;;;;;;;20.40;6.97;;;;;;;;;;5039522;28;20057;-78
2023/01/09 08:51:03;;;;;;;16.55;6.60;;;;;;;;;;5051452;28;20041;-78
2023/01/09 08:53:30;;;;;;;14.48;6.82;;;;;;;;;;5051715;28;20464;-78
2023/01/09 08:55:56;;;;;;;15.05;6.57;;;;;;;;;;5051293;28;20124;-78
2023/01/09 08:58:22;;;;;;;20.58;6.82;;;;;;;;;;5051037;28;20089;-78
2023/01/09 09:00:48;;;;;;;15.10;6.32;;;;;;;;;;5034994;28;20040;-78
2023/01/09 09:03:16;;;;;;;16.38;6.78;;;;;;;;;;5052386;28;20540;-78
2023/01/09 09:05:42;;;;;;;14.18;5.88;;;;;;;;;;5051651;28;20083;-78
2023/01/09 09:08:08;;;;;;;15.18;5.95;;;;;;;;;;5050993;28;20036;-78
2023/01/09 09:10:34;;;;;;;16.80;5.95;;;;;;;;;;5052723;28;20512;-78
2023/01/09 09:13:01;;;;;;;14.73;5.90;;;;;;;;;;5034417;28;20045;-78
2023/01/09 09:15:27;;;;;;;20.02;5.97;;;;;;;;;;5051537;28;20041;-78
2023/01/09 09:17:55;;;;;;;11.05;5.57;;;;;;;;;;5034563;28;20076;-78
2023/01/09 09:20:22;;;;;;;14.10;5.82;;;;;;;;;;5050747;28;20037;-78
2023/01/09 09:22:48;;;;;;;15.70;5.32;;;;;;;;;;5042432;28;20120;-78
2023/01/09 09:25:15;;;;;;;10.90;4.90;;;;;;;;;;5045796;28;20084;-78
2023/01/09 09:27:41;;;;;;;13.85;5.50;;;;;;;;;;5052339;28;20041;-78
2023/01/09 09:30:07;;;;;;;15.07;6.15;;;;;;;;;;5051870;28;20041;-77
2023/01/09 09:32:34;;;;;;;14.27;5.03;;;;;;;;;;5050963;28;20128;-77
2023/01/09 09:35:00;;;;;;;13.60;5.07;;;;;;;;;;5043566;28;20041;-77
2023/01/09 09:37:26;;;;;;;13.70;4.95;;;;;;;;;;5027773;28;20032;-78
2023/01/09 09:39:52;;;;;;;13.68;5.00;;;;;;;;;;5050889;28;20068;-78
2023/01/09 09:45:36;;;;;;;13.27;5.03;;;;;;;;;;5032296;28;20037;-77
2023/01/09 09:48:02;;;;;;;;;;;;;;;;;;5051240;28;20072;-78
2023/01/09 09:50:47;;;;;;;13.25;5.75;;;;;;;;;;5050911;28;19939;-77
2023/01/09 09:53:18;;;;;;;17.33;5.50;;;;;;;;;;5050220;28;20048;-78
2023/01/09 09:55:46;;;;;;;9.75;5.00;;;;;;;;;;5051113;28;20517;-77
2023/01/09 09:58:24;;;;;;;15.27;5.65;;;;;;;;;;5050471;28;20083;-77
2023/01/09 10:00:51;;;;;;;14.52;4.75;;;;;;;;;;5050784;28;20045;-77
2023/01/09 10:03:20;;;;;;;16.08;5.18;;;;;;;;;;5050442;28;20041;-78
2023/01/09 10:05:47;;;;;;;15.55;5.28;;;;;;;;;;5050940;28;20056;-78
2023/01/09 10:08:26;;;;;;;13.80;4.90;;;;;;;;;;5050278;28;20498;-77
2023/01/09 10:10:53;;;;;;;13.75;4.57;;;;;;;;;;5050708;28;20041;-77
2023/01/09 10:16:11;;;;;;;17.00;5.30;;;;;;;;;;5050372;28;20048;-77
2023/01/09 10:18:46;;;;;;;12.07;4.47;;;;;;;;;;5050409;28;20045;-78
2023/01/09 10:21:12;;;;;;;15.68;5.68;;;;;;;;;;5050117;28;20041;-77
2023/01/09 10:23:47;;;;;;;13.40;5.07;;;;;;;;;;5050235;28;20055;-77
2023/01/09 10:26:19;;;;;;;11.52;5.40;;;;;;;;;;5050254;28;20106;-77
2023/01/09 10:28:48;;;;;;;14.48;6.20;;;;;;;;;;5050592;28;20040;-78
2023/01/09 10:31:31;;;;;;;14.40;5.68;;;;;;;;;;5050313;28;20490;-78
2023/01/09 10:33:57;;;;;;;14.05;5.70;;;;;;;;;;5050375;28;20055;-77
2023/01/09 10:36:26;;;;;;;12.60;5.30;;;;;;;;;;5051412;28;20041;-78
2023/01/09 10:38:54;;;;;;;13.15;5.70;;;;;;;;;;5050669;28;20417;-78
2023/01/09 10:41:23;;;;;;;13.68;6.05;;;;;;;;;;5033798;28;20040;-77
2023/01/09 10:43:57;;;;;;;12.88;5.47;;;;;;;;;;5054146;28;20040;-77
2023/01/09 10:46:45;;;;;;;10.68;5.85;;;;;;;;;;5053682;28;20041;-78
2023/01/09 10:49:14;;;;;;;11.73;5.25;;;;;;;;;;5053769;28;20041;-77
2023/01/09 10:51:50;;;;;;;13.05;6.10;;;;;;;;;;5055517;28;20037;-77
2023/01/09 10:54:17;;;;;;;;;;;;;;;;;;5055420;28;20116;-77
2023/01/09 10:57:04;;;;;;;16.95;8.07;;;;;;;;;;5054045;28;19916;-77
2023/01/09 10:59:30;;;;;;;31.50;15.20;;;;;;;;;;5052997;28;20053;-77
2023/01/09 11:01:56;;;;;;;39.15;16.70;;;;;;;;;;5054078;28;20433;-77
2023/01/09 11:04:26;;;;;;;36.50;16.02;;;;;;;;;;5053579;28;20481;-77
2023/01/09 11:06:55;;;;;;;30.08;16.85;;;;;;;;;;5053477;28;20048;-77
2023/01/09 11:09:21;;;;;;;27.50;12.52;;;;;;;;;;5036451;28;20045;-77
2023/01/09 11:11:47;;;;;;;16.20;7.93;;;;;;;;;;5053602;28;20071;-77
2023/01/09 11:14:16;;;;;;;16.90;6.93;;;;;;;;;;5053336;28;20435;-77
2023/01/09 11:16:52;;;;;;;15.73;7.18;;;;;;;;;;5053374;28;20072;-77
2023/01/09 11:19:19;;;;;;;17.48;7.13;;;;;;;;;;5036126;28;20124;-78
2023/01/09 11:21:45;;;;;;;13.00;6.97;;;;;;;;;;5053325;28;20032;-78
2023/01/09 11:24:20;;;;;;;14.13;7.50;;;;;;;;;;5019717;28;20037;-77
2023/01/09 11:26:47;;;;;;;14.50;7.88;;;;;;;;;;5046635;28;20124;-77
2023/01/09 11:29:18;;;;;;;12.63;7.10;;;;;;;;;;5053397;28;20076;-77
2023/01/09 11:32:00;;;;;;;13.95;7.40;;;;;;;;;;5053136;28;20124;-77
2023/01/09 11:34:28;;;;;;;16.67;7.10;;;;;;;;;;5052940;28;20124;-77
2023/01/09 11:37:02;;;;;;;13.30;7.35;;;;;;;;;;5053385;28;20095;-77
2023/01/09 11:39:30;;;;;;;15.93;7.00;;;;;;;;;;5052638;28;20486;-78
2023/01/09 11:42:00;;;;;;;12.32;7.40;;;;;;;;;;5052917;28;20045;-79
2023/01/09 11:44:27;;;;;;;13.38;7.47;;;;;;;;;;5052905;28;20532;-77
2023/01/09 11:46:53;;;;;;;14.02;7.72;;;;;;;;;;5052895;28;20044;-77
2023/01/09 11:49:21;;;;;;;15.52;7.72;;;;;;;;;;5052579;28;20041;-77
2023/01/09 11:52:03;;;;;;;14.98;8.07;;;;;;;;;;5052637;28;20083;-77
2023/01/09 11:54:34;;;;;;;15.63;8.30;;;;;;;;;;5021044;28;20041;-77
2023/01/09 11:57:00;;;;;;;14.60;8.07;;;;;;;;;;5022398;28;20040;-77
2023/01/09 11:59:28;;;;;;;12.55;7.18;;;;;;;;;;5085585;28;20053;-78
2023/01/09 12:02:10;;;;;;;12.60;6.93;;;;;;;;;;5052760;28;20504;-77
2023/01/09 12:04:54;;;;;;;14.27;7.97;;;;;;;;;;5052514;28;20037;-77
2023/01/09 12:07:23;;;;;;;15.55;7.55;;;;;;;;;;5039552;28;20043;-77
2023/01/09 12:10:08;;;;;;;13.15;7.80;;;;;;;;;;5052672;28;20040;-77
2023/01/09 12:12:40;;;;;;;13.85;7.20;;;;;;;;;;5040708;28;20455;-77
2023/01/09 12:15:25;;;;;;;14.18;7.55;;;;;;;;;;5035856;28;20044;-77
2023/01/09 12:18:07;;;;;;;14.18;7.43;;;;;;;;;;5035997;28;20040;-78
2023/01/09 12:20:50;;;;;;;13.85;7.70;;;;;;;;;;5051905;28;20076;-77
2023/01/09 12:23:20;;;;;;;16.50;7.20;;;;;;;;;;5052696;28;20568;-78
2023/01/09 12:25:52;;;;;;;15.48;7.63;;;;;;;;;;5053424;28;20041;-77
2023/01/09 12:28:37;;;;;;;17.70;7.60;;;;;;;;;;5052226;28;20037;-78
2023/01/09 12:31:21;;;;;;;13.52;7.32;;;;;;;;;;5052322;28;20053;-77
2023/01/09 12:33:47;;;;;;;15.80;7.75;;;;;;;;;;5052274;28;20048;-77
2023/01/09 12:36:17;;;;;;;14.77;7.07;;;;;;;;;;5052126;28;20037;-77
2023/01/09 12:38:47;;;;;;;14.73;7.05;;;;;;;;;;5053236;28;20036;-78
2023/01/09 12:41:27;;;;;;;15.98;6.57;;;;;;;;;;5052193;28;20042;-77
2023/01/09 12:44:12;;;;;;;13.38;6.43;;;;;;;;;;5052363;28;20445;-77
2023/01/09 12:46:47;;;;;;;11.38;6.03;;;;;;;;;;5051605;28;20048;-77
2023/01/09 12:49:25;;;;;;;13.88;6.38;;;;;;;;;;5035543;28;20045;-77
2023/01/09 12:51:55;;;;;;;12.77;6.13;;;;;;;;;;5052472;28;20563;-78
2023/01/09 12:54:26;;;;;;;14.15;5.50;;;;;;;;;;5051985;28;20036;-77
2023/01/09 12:56:52;;;;;;;11.73;5.70;;;;;;;;;;5052146;28;20037;-77
2023/01/09 12:59:29;;;;;;;10.43;5.20;;;;;;;;;;5051436;28;20056;-77
2023/01/09 13:01:59;;;;;;;13.45;5.10;;;;;;;;;;5034793;28;20041;-77
2023/01/09 13:04:30;;;;;;;13.20;4.38;;;;;;;;;;5051359;28;20425;-77
2023/01/09 13:07:00;;;;;;;10.82;3.90;;;;;;;;;;5051568;28;20044;-77
2023/01/09 13:09:38;;;;;;;11.65;3.65;;;;;;;;;;5051311;28;20045;-77
2023/01/09 13:12:13;;;;;;;11.65;3.30;;;;;;;;;;5037147;28;20037;-77
2023/01/09 13:14:39;;;;;;;14.03;3.33;;;;;;;;;;5050879;28;20040;-77
2023/01/09 13:17:09;;;;;;;15.18;3.60;;;;;;;;;;5051130;28;20040;-77
2023/01/09 13:19:38;;;;;;;10.38;3.03;;;;;;;;;;5040724;28;20049;-77
2023/01/09 13:22:05;;;;;;;11.73;3.00;;;;;;;;;;5031898;28;20037;-78
2023/01/09 13:24:35;;;;;;;10.27;3.08;;;;;;;;;;5050880;28;20041;-77
2023/01/09 13:27:05;;;;;;;12.48;3.38;;;;;;;;;;5051368;28;20510;-77
2023/01/09 13:29:34;;;;;;;13.40;3.00;;;;;;;;;;5050622;28;20055;-77
2023/01/09 13:32:00;;;;;;;12.40;3.50;;;;;;;;;;5034421;28;20041;-77
2023/01/09 13:34:29;;;;;;;14.25;3.33;;;;;;;;;;5050989;28;20044;-77
2023/01/09 13:36:56;;;;;;;11.27;3.20;;;;;;;;;;5051114;28;20052;-77
2023/01/09 13:39:27;;;;;;;12.52;3.15;;;;;;;;;;5050846;28;20037;-77
2023/01/09 13:44:49;;;;;;;13.45;3.53;;;;;;;;;;5050587;28;20044;-77
2023/01/09 13:47:20;;;;;;;9.00;2.95;;;;;;;;;;5051160;28;20048;-77
2023/01/09 13:49:46;;;;;;;13.70;2.70;;;;;;;;;;5050510;28;20041;-77
2023/01/09 13:52:28;;;;;;;10.77;2.70;;;;;;;;;;5051164;28;20429;-77
2023/01/09 13:54:54;;;;;;;16.40;3.10;;;;;;;;;;5034136;28;20115;-78
2023/01/09 13:57:20;;;;;;;8.68;2.55;;;;;;;;;;5050840;28;20044;-77
2023/01/09 13:59:49;;;;;;;18.40;3.22;;;;;;;;;;5050026;28;20429;-78
2023/01/09 14:02:33;;;;;;;13.95;3.13;;;;;;;;;;5050739;28;20056;-77
2023/01/09 14:05:00;;;;;;;13.40;2.90;;;;;;;;;;5050685;28;20043;-78
2023/01/09 14:07:33;;;;;;;12.95;2.75;;;;;;;;;;5050781;28;20055;-78
2023/01/09 14:10:00;;;;;;;14.70;3.90;;;;;;;;;;5050813;28;20036;-78
2023/01/09 14:12:28;;;;;;;11.40;2.80;;;;;;;;;;5033981;28;20037;-77
2023/01/09 14:14:56;;;;;;;14.95;2.97;;;;;;;;;;5050446;28;20049;-77
2023/01/09 14:17:29;;;;;;;15.77;3.35;;;;;;;;;;5052760;28;20032;-77
2023/01/09 14:19:57;;;;;;;12.18;2.95;;;;;;;;;;5054590;28;20045;-77
2023/01/09 14:22:25;;;;;;;10.32;2.60;;;;;;;;;;5054544;28;20094;-77
2023/01/09 14:24:52;;;;;;;8.98;2.47;;;;;;;;;;5054378;28;20040;-78
2023/01/09 14:27:37;;;;;;;12.60;2.60;;;;;;;;;;5056062;28;20068;-78
2023/01/09 14:30:21;;;;;;;13.45;2.70;;;;;;;;;;5043081;28;20048;-77
2023/01/09 14:33:06;;;;;;;12.15;3.42;;;;;;;;;;5054319;28;20045;-78
2023/01/09 14:35:32;;;;;;;11.88;3.05;;;;;;;;;;5055055;28;20389;-77
2023/01/09 14:38:04;;;;;;;17.58;3.63;;;;;;;;;;5053842;28;20037;-77
2023/01/09 14:40:30;;;;;;;16.75;3.95;;;;;;;;;;5054532;28;20041;-77
2023/01/09 14:42:59;;;;;;;14.85;3.20;;;;;;;;;;5054118;28;20040;-77
2023/01/09 14:45:26;;;;;;;16.67;3.17;;;;;;;;;;5054597;28;20041;-77
2023/01/09 14:47:52;;;;;;;14.02;3.13;;;;;;;;;;5055875;28;20402;-77
2023/01/09 14:50:30;;;;;;;14.07;2.70;;;;;;;;;;5054569;28;20528;-77
2023/01/09 14:53:02;;;;;;;10.63;2.70;;;;;;;;;;5053591;28;20099;-77
2023/01/09 14:55:37;;;;;;;11.07;3.40;;;;;;;;;;5054356;28;20044;-77
2023/01/09 14:58:20;;;;;;;14.57;3.40;;;;;;;;;;5053293;28;20426;-77